Flight Track Log - Related Links

Times and Time Zones

All times are in EDT time to prevent confusion due to time zone crossing. See the N312BL flight status page for this flight to view local times or setup timezone preferences in your user account.

Time Position Orientation Groundspeed Altitude Reporting Facility
EDT Latitude Longitude Course Direction KTS MPH feet Rate Location/Type
Tue 10:53:04 AM 41.4667 -73.1500 153° Southeast 185 213 3,300  Level New York TRACON
Tue 10:54:10 AM 41.4167 -73.1333 166° South 219 252 3,600 1,524 Climbing New York TRACON
Tue 10:55:10 AM 41.3667 -73.1000 153° Southeast 220 253 6,500 2,650 Climbing New York TRACON
Tue 10:56:10 AM 41.3000 -73.0500 151° Southeast 248 285 8,900 1,238 Climbing New York TRACON
Tue 10:57:16 AM 41.2333 -72.9833 143° Southeast 298 343 9,100 238 Climbing New York TRACON
Tue 10:58:00 AM 41.1323 -72.8548 153° Southeast  Level FlightAware Approximate
Tue 10:58:16 AM 41.1667 -72.9167 143° Southeast 305 351 9,400  Level New York TRACON
Tue 10:58:31 AM 41.1489 -72.9058 155° Southeast 307 353 9,600 480 Climbing Boston Center
Tue 10:59:31 AM 41.0806 -72.8503 148° Southeast 312 359 10,000 200 Climbing Boston Center
Tue 11:00:31 AM 41.0078 -72.7839 145° Southeast 318 366 10,000 1,000 Level Boston Center
Tue 11:01:31 AM 40.9539 -72.6983 130° Southeast 312 359 12,000 2,200 Climbing Boston Center
Tue 11:02:31 AM 40.8831 -72.6789 168° South 272 313 14,400 2,100 Climbing Boston Center
Tue 11:03:31 AM 40.8244 -72.7444 220° Southwest 226 260 16,200 1,700 Climbing Boston Center
Tue 11:04:31 AM 40.7658 -72.8072 219° Southwest 246 283 17,800 1,500 Climbing Boston Center
Tue 11:05:31 AM 40.7011 -72.8725 217° Southwest 281 323 19,200 1,550 Climbing Boston Center
Tue 11:06:31 AM 40.6342 -72.9378 217° Southwest 299 344 20,900 1,700 Climbing Boston Center
Tue 11:07:31 AM 40.5733 -72.9975 217° Southwest 293 337 22,600 1,500 Climbing Boston Center
Tue 11:08:31 AM 40.5147 -73.0653 221° Southwest 293 337 23,900 1,472 Climbing Boston Center
Tue 11:10:10 AM 40.4017 -73.1808 218° Southwest 298 343 26,500 1,463 Climbing Washington Center
Tue 11:11:11 AM 40.3364 -73.2486 218° Southwest 298 343 27,800 1,131 Climbing Washington Center
Tue 11:12:12 AM 40.2689 -73.3158 217° Southwest 298 343 28,800 1,210 Climbing Washington Center
Tue 11:13:10 AM 40.2036 -73.3858 219° Southwest 303 349 30,200 1,160 Climbing Washington Center
Tue 11:14:11 AM 40.1381 -73.4450 215° Southwest 308 354 31,100 885 Climbing Washington Center
Tue 11:15:12 AM 40.0683 -73.5175 219° Southwest 313 360 32,000 942 Climbing Washington Center
Tue 11:16:12 AM 39.9967 -73.5928 219° Southwest 325 374 33,000 915 Climbing Washington Center
Tue 11:17:10 AM 39.9250 -73.6597 216° Southwest 325 374 33,800 504 Climbing Washington Center
Tue 11:18:11 AM 39.8511 -73.7347 218° Southwest 331 381 34,000 98 Climbing Washington Center
Tue 11:19:12 AM 39.7711 -73.8125 217° Southwest 344 396 34,000  Level Washington Center
Tue 11:20:09 AM 39.6931 -73.8925 218° Southwest 358 412 34,000  Level Washington Center
Tue 11:21:10 AM 39.6131 -73.9728 218° Southwest 364 419 34,000  Level Washington Center
Tue 11:22:10 AM 39.5306 -74.0525 217° Southwest 371 427 34,000  Level Washington Center
Tue 11:23:11 AM 39.4503 -74.1322 217° Southwest 376 433 34,000  Level Washington Center
Tue 11:24:11 AM 39.3658 -74.2144 217° Southwest 376 433 34,000  Level Washington Center
Tue 11:25:12 AM 39.2878 -74.2992 220° Southwest 376 433 34,000  Level Washington Center
Tue 11:26:12 AM 39.2261 -74.3967 231° Southwest 364 419 34,000  Level Washington Center
Tue 11:27:10 AM 39.1625 -74.4942 230° Southwest 358 412 34,000 -50 Level Washington Center
Tue 11:28:11 AM 39.0989 -74.5994 232° Southwest 363 418 33,900 -443 Descending Washington Center
Tue 11:29:12 AM 39.0350 -74.7017 231° Southwest 369 425 33,100 -992 Descending Washington Center
Tue 11:30:12 AM 38.9458 -74.7803 214° Southwest 381 438 31,900 -1,220 Descending Washington Center
Tue 11:31:10 AM 38.8567 -74.8453 210° Southwest 386 444 30,700 -958 Descending Washington Center
Tue 11:32:11 AM 38.7656 -74.9208 213° Southwest 380 437 30,000 -344 Descending Washington Center
Tue 11:33:12 AM 38.6742 -74.9881 210° Southwest 380 437 30,000  Level Washington Center
Tue 11:34:09 AM 38.5828 -75.0606 212° Southwest 386 444 30,000  Level Washington Center
Tue 11:35:10 AM 38.4911 -75.1275 210° Southwest 386 444 30,000  Level Washington Center
Tue 11:36:10 AM 38.3997 -75.2050 214° Southwest 386 444 30,000  Level Washington Center
Tue 11:37:11 AM 38.3000 -75.2847 212° Southwest 386 444 30,000  Level Washington Center
Tue 11:38:11 AM 38.2061 -75.3567 211° Southwest 386 444 30,000  Level Washington Center
Tue 11:39:12 AM 38.1147 -75.4256 211° Southwest 386 444 30,000  Level Washington Center
Tue 11:40:12 AM 38.0272 -75.5047 215° Southwest 386 444 30,000  Level Washington Center
Tue 11:41:10 AM 37.9519 -75.5944 223° Southwest 381 438 30,000  Level Washington Center
Tue 11:42:10 AM 37.8750 -75.6839 223° Southwest 381 438 30,000  Level Washington Center
Tue 11:43:11 AM 37.7997 -75.7783 225° Southwest 381 438 30,000 -98 Level Washington Center
Tue 11:44:12 AM 37.7225 -75.8647 222° Southwest 381 438 29,800 -545 Descending Washington Center
Tue 11:45:12 AM 37.6428 -75.9564 222° Southwest 381 438 28,900 -966 Descending Washington Center
Tue 11:46:10 AM 37.5653 -76.0478 223° Southwest 381 438 27,900 -458 Descending Washington Center
Tue 11:47:10 AM 37.4942 -76.1258 221° Southwest 381 438 28,000 50 Climbing Washington Center
Tue 11:48:11 AM 37.4103 -76.2194 222° Southwest 381 438 28,000  Level Washington Center
Tue 11:49:12 AM 37.3367 -76.3050 223° Southwest 376 433 28,000  Level Washington Center
Tue 11:50:09 AM 37.2611 -76.3931 223° Southwest 371 427 28,000  Level Washington Center
Tue 11:51:10 AM 37.1856 -76.4756 221° Southwest 371 427 28,000  Level Washington Center
Tue 11:52:10 AM 37.1097 -76.5606 222° Southwest 371 427 28,000  Level Washington Center
Tue 11:53:11 AM 37.0381 -76.6483 224° Southwest 371 427 28,000  Level Washington Center
Tue 11:54:12 AM 36.9644 -76.7306 222° Southwest 371 427 28,000  Level Washington Center
Tue 11:55:12 AM 36.8906 -76.8125 222° Southwest 371 427 28,000 -615 Level Washington Center
Tue 11:56:09 AM 36.8186 -76.8969 223° Southwest 371 427 26,800 -1,169 Descending Washington Center
Tue 11:57:10 AM 36.7447 -76.9786 222° Southwest 365 420 25,700 -984 Descending Washington Center
Tue 11:58:11 AM 36.6917 -77.0658 233° Southwest 351 404 24,800 -836 Descending Washington Center
Tue 11:59:12 AM 36.6444 -77.1633 239° Southwest 340 391 24,000 -843 Descending Washington Center
Tue 12:00:12 PM 36.5950 -77.2708 240° Southwest 340 391 23,100 -966 Descending Washington Center
Tue 12:01:10 PM 36.5475 -77.3708 239° Southwest 345 397 22,100 -1,059 Descending Washington Center
Tue 12:02:11 PM 36.5000 -77.4781 241° Southwest 350 403 21,000 -1,033 Descending Washington Center
Tue 12:03:12 PM 36.4503 -77.5828 239° Southwest 355 409 20,000 -942 Descending Washington Center
Tue 12:04:12 PM 36.4092 -77.6772 242° Southwest 355 409 19,100 -508 Descending Washington Center
Tue 12:05:10 PM 36.3594 -77.7767 238° Southwest 355 409 19,000 -51 Descending Washington Center
Tue 12:06:10 PM 36.3139 -77.8706 239° Southwest 343 395 19,000  Level Washington Center
Tue 12:07:11 PM 36.2683 -77.9647 239° Southwest 331 381 19,000 -246 Level Washington Center
Tue 12:08:12 PM 36.2244 -78.0611 241° Southwest 326 375 18,500 -555 Descending Washington Center
Tue 12:09:10 PM 36.1722 -78.1650 238° Southwest 326 375 17,900 -796 Descending Washington Center
Tue 12:10:05 PM 36.1264 -78.2614 240° Southwest 343 395 17,000 -918 Descending Washington Center
Tue 12:10:35 PM 36.1044 -78.3069 239° Southwest 344 396 16,600 -896 Descending Washington Center
Tue 12:11:12 PM 36.0758 -78.3675 240° Southwest 331 381 16,000 -984 Descending Washington Center
Tue 12:11:36 PM 36.0519 -78.4156 238° Southwest 343 395 15,600 -828 Descending Washington Center
Tue 12:12:10 PM 36.0319 -78.4611 242° Southwest 337 388 15,200 -787 Descending Washington Center
Tue 12:12:37 PM 36.0056 -78.5139 238° Southwest 340 391 14,800 -800 Descending Washington Center
Tue 12:13:10 PM 35.9836 -78.5594 239° Southwest 342 394 14,400 -885 Descending Washington Center
Tue 12:13:38 PM 35.9614 -78.6175 245° Southwest 330 380 13,900 -984 Descending Washington Center
Tue 12:14:11 PM 35.9539 -78.6661 259° West 337 388 13,400 -1,082 Descending Washington Center
Tue 12:14:39 PM 35.9419 -78.7244 256° West 315 362 12,800 -1,082 Descending Washington Center
Tue 12:15:12 PM 35.9344 -78.7706 259° West 326 375 12,300 -889 Descending Washington Center
Tue 12:15:33 PM 35.9228 -78.8186 253° West 316 364 12,000 -300 Descending Washington Center
Tue 12:16:12 PM 35.9067 -78.8667 248° West 318 366 12,000 -300 Level Washington Center
Tue 12:16:33 PM 35.8703 -78.9064 222° Southwest 303 349 11,700 -1,138 Descending Washington Center
Tue 12:17:10 PM 35.8403 -78.9306 213° Southwest 324 373 10,900 -1,672 Descending Washington Center
Tue 12:17:34 PM 35.8019 -78.9572 209° Southwest 292 336 10,000 -1,700 Descending Washington Center
Tue 12:18:10 PM 35.7722 -78.9814 213° Southwest 304 350 9,200 -1,770 Descending Washington Center
Tue 12:18:35 PM 35.7361 -79.0056 209° Southwest 275 316 8,200 -1,770 Descending Washington Center
Tue 12:19:11 PM 35.7083 -79.0247 209° Southwest 292 336 7,400 -1,546 Descending Washington Center
Tue 12:20:12 PM 35.6425 -79.0603 204° Southwest 273 314 5,700 -1,714 Descending Washington Center
Tue 12:21:10 PM 35.5894 -79.0989 211° Southwest 250 288 4,000 -864 Descending Washington Center
Tue 12:22:10 PM 35.5358 -79.1400 212° Southwest 213 245 4,000  Level Washington Center
Tue 12:23:12 PM 35.4914 -79.1636 203° Southwest 199 229 4,000 -49 Level Washington Center
Tue 12:24:12 PM 35.4381 -79.1994 209° Southwest 199 229 3,900 4,068 Descending Washington Center
Tue 12:25:10 PM 35.3914 -79.2278 206° Southwest 199 229 12,000 8,379 Climbing Washington Center

Login

Don't have an account? Register now (free) for customized features, flight alerts, and more!